Time;durP1;ratioP1;P1;durP2;ratioP2;P2;SDS_P1;SDS_P2;PMS_P1;PMS_P2;Temp;Humidity;BMP_temperature;BMP_pressure;BME280_temperature;BME280_humidity;BME280_pressure;Samples;Min_cycle;Max_cycle;Signal;HPM_P1;HPM_P2
2023/10/31 02:09:05;;;;;;;10.45;4.97;;;;;;;15.20;63.91;99334.44;5023534;28;20034;-94
2023/10/31 02:11:33;;;;;;;12.00;5.47;;;;;;;15.12;63.66;99321.56;4987107;28;20534;-95
2023/10/31 02:13:59;;;;;;;13.10;5.35;;;;;;;15.08;64.58;99343.06;4987793;28;20017;-94
2023/10/31 02:16:28;;;;;;;10.55;4.97;;;;;;;14.95;64.44;99322.94;4986895;28;20026;-94
2023/10/31 02:18:54;;;;;;;10.90;4.95;;;;;;;15.01;64.34;99331.00;4986170;28;20025;-96
2023/10/31 02:21:21;;;;;;;9.93;5.78;;;;;;;14.93;64.52;99337.91;5004206;28;20021;-95
2023/10/31 02:24:03;;;;;;;8.10;4.88;;;;;;;14.87;64.75;99334.47;4987190;28;20027;-95
2023/10/31 02:26:32;;;;;;;8.30;4.68;;;;;;;14.97;64.53;99343.56;5019726;28;20040;-96
2023/10/31 02:28:59;;;;;;;7.45;4.40;;;;;;;14.89;64.43;99348.53;4985990;28;20061;-95
2023/10/31 02:31:25;;;;;;;9.25;4.55;;;;;;;14.80;65.12;99338.69;5002160;28;20087;-96
2023/10/31 02:33:54;;;;;;;9.25;4.90;;;;;;;14.72;65.10;99337.47;5002340;28;20021;-96
2023/10/31 02:36:19;;;;;;;6.80;4.70;;;;;;;14.76;65.53;99354.75;5002239;28;20063;-95
2023/10/31 02:38:52;;;;;;;9.25;4.97;;;;;;;14.72;65.46;99362.66;4985519;28;20042;-95
2023/10/31 02:41:18;;;;;;;12.55;5.28;;;;;;;14.54;65.59;99353.41;4986812;28;20037;-95
2023/10/31 02:43:45;;;;;;;11.95;5.03;;;;;;;14.42;65.99;99341.44;4984827;28;20120;-96
2023/10/31 02:46:15;;;;;;;10.55;5.80;;;;;;;14.42;66.15;99352.25;4985172;28;20036;-93
2023/10/31 02:48:41;;;;;;;12.57;5.18;;;;;;;14.26;66.25;99351.72;5002268;28;20029;-94
2023/10/31 02:51:08;;;;;;;8.95;4.93;;;;;;;14.14;66.85;99352.13;4985530;28;20037;-96
2023/10/31 02:53:35;;;;;;;10.27;5.32;;;;;;;14.06;66.58;99345.47;5001115;28;20018;-94
2023/10/31 02:56:02;;;;;;;14.57;5.10;;;;;;;14.20;66.66;99380.75;5017962;28;20029;-94
2023/10/31 02:58:27;;;;;;;8.60;4.82;;;;;;;13.83;67.16;99340.91;5002012;28;20456;-95
2023/10/31 03:00:53;;;;;;;9.07;4.75;;;;;;;13.86;67.28;99365.50;4985104;28;20068;-96
2023/10/31 03:03:21;;;;;;;13.48;5.55;;;;;;;13.82;67.57;99364.47;4985908;28;20434;-94
2023/10/31 03:05:51;;;;;;;11.25;5.63;;;;;;;13.86;67.69;99379.03;4986242;28;20029;-94
2023/10/31 03:08:20;;;;;;;11.68;5.43;;;;;;;13.79;67.27;99358.84;4987085;28;20060;-96
2023/10/31 03:10:49;;;;;;;12.55;5.57;;;;;;;13.71;68.12;99361.06;5002258;28;20049;-95
2023/10/31 03:13:16;;;;;;;10.63;5.20;;;;;;;13.87;67.87;99385.25;4985969;28;20025;-95
2023/10/31 03:15:43;;;;;;;10.65;4.97;;;;;;;13.84;67.83;99375.00;5002065;28;20079;-93
2023/10/31 03:18:09;;;;;;;6.75;4.43;;;;;;;13.72;68.01;99370.03;5018112;28;20029;-94
2023/10/31 03:20:36;;;;;;;16.25;4.82;;;;;;;13.84;68.02;99381.22;4985738;28;20057;-94
2023/10/31 03:23:03;;;;;;;12.60;5.13;;;;;;;13.52;68.40;99338.59;5002450;28;20029;-95
2023/10/31 03:25:29;;;;;;;12.65;5.18;;;;;;;13.58;68.73;99363.69;5001810;28;20037;-94
2023/10/31 03:27:58;;;;;;;11.90;5.38;;;;;;;13.55;68.38;99362.38;4985392;28;20034;-94
2023/10/31 03:30:24;;;;;;;8.77;5.07;;;;;;;13.34;68.97;99353.66;4989737;28;20037;-94
2023/10/31 03:32:53;;;;;;;12.73;5.18;;;;;;;13.30;68.72;99349.91;5004645;28;20441;-95
2023/10/31 03:35:20;;;;;;;13.10;6.80;;;;;;;13.04;68.95;99333.94;5006019;28;20025;-96
2023/10/31 03:37:48;;;;;;;12.23;6.10;;;;;;;13.08;68.78;99342.28;5004159;28;20061;-96
2023/10/31 03:40:14;;;;;;;9.48;6.32;;;;;;;13.06;69.17;99349.88;4988089;28;20525;-95
2023/10/31 03:42:40;;;;;;;15.40;6.22;;;;;;;13.08;68.75;99369.31;5021626;28;20463;-96
2023/10/31 03:45:08;;;;;;;9.43;5.65;;;;;;;13.04;68.82;99352.84;5004680;28;20125;-96
2023/10/31 03:47:35;;;;;;;8.38;5.50;;;;;;;13.16;68.70;99360.59;4988983;28;20099;-94
2023/10/31 03:50:00;;;;;;;11.38;6.43;;;;;;;13.12;68.82;99357.63;5004402;28;20120;-95
2023/10/31 03:52:26;;;;;;;9.95;5.90;;;;;;;12.78;69.42;99321.75;5003746;28;20068;-95
2023/10/31 03:54:52;;;;;;;11.15;7.10;;;;;;;12.79;69.21;99326.06;5004536;28;20534;-96
2023/10/31 03:57:19;;;;;;;14.40;7.22;;;;;;;12.83;68.97;99335.22;5004722;28;20025;-96
2023/10/31 03:59:45;;;;;;;15.32;7.68;;;;;;;12.72;69.18;99326.38;5004802;28;20021;-95
2023/10/31 04:02:10;;;;;;;16.92;7.55;;;;;;;12.72;68.97;99326.38;5004397;28;20117;-95
2023/10/31 04:04:36;;;;;;;12.98;6.70;;;;;;;12.76;68.90;99332.03;5003951;28;20029;-96
2023/10/31 04:07:02;;;;;;;12.88;7.18;;;;;;;12.66;69.32;99330.25;4987774;28;20088;-95
2023/10/31 04:09:27;;;;;;;18.60;9.55;;;;;;;12.56;69.39;99327.63;4983968;28;20041;-94
2023/10/31 04:11:53;;;;;;;17.33;10.32;;;;;;;12.44;69.36;99326.06;4984329;28;20022;-95
2023/10/31 04:14:19;;;;;;;16.08;9.10;;;;;;;12.41;69.35;99328.53;4984457;28;20057;-94
2023/10/31 04:16:45;;;;;;;24.00;9.38;;;;;;;12.41;69.57;99331.22;4984414;28;20419;-93
2023/10/31 04:19:13;;;;;;;21.90;9.13;;;;;;;12.27;70.00;99304.06;4984205;28;20403;-94
2023/10/31 04:21:39;;;;;;;25.77;10.07;;;;;;;12.44;69.97;99342.28;4984116;28;20017;-95
2023/10/31 04:24:05;;;;;;;25.30;9.52;;;;;;;12.41;70.17;99337.47;4984640;28;20032;-94
2023/10/31 04:26:31;;;;;;;13.68;8.88;;;;;;;12.30;70.02;99308.91;4985213;28;20033;-95
2023/10/31 04:29:01;;;;;;;18.50;10.07;;;;;;;12.32;70.35;99326.44;4985599;28;20104;-94
2023/10/31 04:31:30;;;;;;;19.23;10.20;;;;;;;12.36;69.99;99336.69;4984564;28;20032;-93
2023/10/31 04:33:56;;;;;;;18.40;10.32;;;;;;;12.39;69.92;99346.91;4985252;28;20025;-93
2023/10/31 04:36:21;;;;;;;17.52;9.88;;;;;;;12.27;69.89;99325.69;5003042;28;20081;-94
2023/10/31 04:38:47;;;;;;;18.45;9.98;;;;;;;12.13;69.83;99312.00;4983408;28;20050;-93
2023/10/31 04:41:13;;;;;;;24.20;10.60;;;;;;;12.26;69.71;99329.44;4998789;28;20500;-92
2023/10/31 04:43:48;;;;;;;23.60;12.50;;;;;;;12.13;70.36;99333.59;4999470;28;20036;-93
2023/10/31 04:46:17;;;;;;;22.48;10.57;;;;;;;12.36;69.90;99350.97;5015875;28;20025;-94
2023/10/31 04:48:44;;;;;;;25.58;12.35;;;;;;;12.12;70.02;99319.28;4999986;28;20053;-93
2023/10/31 04:51:11;;;;;;;21.80;11.95;;;;;;;12.08;70.63;99320.13;4983096;28;20037;-94
2023/10/31 04:53:39;;;;;;;26.40;13.98;;;;;;;12.11;70.25;99333.84;5000117;28;20021;-94
2023/10/31 04:56:05;;;;;;;25.00;13.82;;;;;;;12.17;70.53;99347.34;4985648;28;20036;-95
2023/10/31 04:58:30;;;;;;;26.77;15.00;;;;;;;12.02;70.79;99334.75;4984053;28;20026;-94
2023/10/31 05:00:56;;;;;;;36.08;16.75;;;;;;;12.01;70.72;99335.81;4969660;28;20022;-94
2023/10/31 05:03:21;;;;;;;37.53;18.50;;;;;;;12.04;70.56;99327.97;4993642;28;20033;-92
2023/10/31 05:05:50;;;;;;;24.88;14.48;;;;;;;11.93;70.84;99323.72;4990972;28;20404;-93
2023/10/31 05:08:24;;;;;;;32.45;14.65;;;;;;;12.01;70.92;99354.69;4968088;28;20531;-94
2023/10/31 05:10:51;;;;;;;33.10;14.65;;;;;;;12.01;71.13;99347.41;4989618;28;20018;-93
2023/10/31 05:13:16;;;;;;;32.35;16.15;;;;;;;12.03;70.99;99345.25;4997062;28;20037;-93
2023/10/31 05:15:47;;;;;;;28.90;15.40;;;;;;;11.91;71.20;99333.97;5000581;28;20451;-93
2023/10/31 05:18:13;;;;;;;31.38;12.98;;;;;;;11.76;71.35;99318.66;4983682;28;20022;-93
2023/10/31 05:20:39;;;;;;;22.27;12.70;;;;;;;11.68;71.49;99330.00;4998942;28;20038;-92
2023/10/31 05:23:05;;;;;;;25.05;12.00;;;;;;;11.85;71.00;99346.66;4999469;28;20038;-91
2023/10/31 05:25:31;;;;;;;29.05;12.20;;;;;;;11.72;71.23;99328.38;4983245;28;20041;-92
2023/10/31 05:27:56;;;;;;;26.13;12.55;;;;;;;11.65;71.11;99331.38;4982937;28;20432;-92
2023/10/31 05:30:23;;;;;;;32.67;13.32;;;;;;;11.58;71.42;99330.06;4983103;28;20030;-92
2023/10/31 05:32:50;;;;;;;25.80;11.55;;;;;;;11.64;71.82;99342.44;5015200;28;20389;-91
2023/10/31 05:35:16;;;;;;;26.25;11.18;;;;;;;11.50;71.66;99312.56;5002613;28;20024;-93
2023/10/31 05:37:44;;;;;;;21.40;12.50;;;;;;;11.73;71.91;99352.38;4982530;28;20030;-92
2023/10/31 05:40:13;;;;;;;27.73;12.10;;;;;;;11.71;71.86;99334.88;5015675;28;20087;-93
2023/10/31 05:42:40;;;;;;;27.70;12.77;;;;;;;11.70;72.19;99333.22;5015216;28;20124;-93
2023/10/31 05:45:06;;;;;;;17.38;11.40;;;;;;;11.69;72.00;99335.13;4977315;28;20030;-94
2023/10/31 05:47:32;;;;;;;23.90;12.40;;;;;;;11.71;72.04;99340.25;4965813;28;20092;-94
2023/10/31 05:49:58;;;;;;;28.70;12.93;;;;;;;11.73;71.57;99311.91;4998859;28;20029;-94
2023/10/31 05:52:42;;;;;;;;;;;;;;;;;;;;;
2023/10/31 05:55:22;;;;;;;;;;;;;;;;;;;;;
2023/10/31 06:00:58;;;;;;;25.98;11.77;;;;;;;12.17;69.76;99329.25;5027714;28;20097;-96
2023/10/31 06:03:27;;;;;;;28.98;13.18;;;;;;;12.36;69.78;99347.47;4990987;28;20038;-96
2023/10/31 06:05:58;;;;;;;35.63;13.40;;;;;;;12.48;69.85;99350.63;4990399;28;20029;-96
2023/10/31 06:09:29;;;;;;;;;;;;;;;;;;;;;
2023/10/31 06:19:45;;;;;;;;;;;;;;;;;;;;;
2023/10/31 06:25:33;;;;;;;36.08;13.77;;;;;;;13.03;68.32;99332.34;4740616;30;20098;-93
2023/10/31 06:28:34;;;;;;;32.08;13.27;;;;;;;13.16;67.79;99347.06;4788508;29;20042;-96
2023/10/31 06:31:12;;;;;;;45.33;13.13;;;;;;;13.25;67.37;99353.44;4837088;29;20033;-96
2023/10/31 06:34:03;;;;;;;31.27;12.00;;;;;;;13.54;66.36;99366.16;4851501;29;20036;-95
2023/10/31 06:36:52;;;;;;;33.97;14.68;;;;;;;13.62;66.71;99353.91;4857862;29;20034;-93
2023/10/31 06:42:53;;;;;;;29.02;15.55;;;;;;;13.84;66.52;99345.22;4955331;29;20123;-95
2023/10/31 06:45:29;;;;;;;;;;;;;;;;;;;;;
2023/10/31 06:48:06;;;;;;;42.58;18.67;;;;;;;13.95;66.06;99327.78;4935536;29;20118;-95
2023/10/31 07:00:37;;;;;;;36.37;16.93;;;;;;;14.64;64.34;99330.81;4938124;29;20043;-94
2023/10/31 07:03:09;;;;;;;31.13;15.88;;;;;;;14.81;63.63;99315.91;4952597;28;20533;-92
2023/10/31 07:05:43;;;;;;;34.53;16.55;;;;;;;15.04;63.54;99331.19;4917532;29;20110;-95
2023/10/31 07:08:34;;;;;;;40.65;17.52;;;;;;;15.09;63.34;99317.56;4911800;29;20031;-94
2023/10/31 07:11:03;;;;;;;25.93;15.03;;;;;;;15.22;62.76;99312.44;4873626;29;20048;-94
2023/10/31 07:13:36;;;;;;;26.10;14.45;;;;;;;15.46;62.40;99320.38;4855642;29;20622;-94
2023/10/31 07:16:48;;;;;;;;;;;;;;;;;;;;;
2023/10/31 07:18:59;;;;;;;28.65;13.95;;;;;;;15.64;61.77;99324.09;4858286;29;20056;-96
2023/10/31 07:38:35;;;;;;;;;;;;;;;;;;;;;
2023/10/31 07:41:34;;;;;;;20.70;9.00;;;;;;;16.55;59.56;99301.41;5011153;28;20070;-95
2023/10/31 07:50:57;;;;;;;36.57;24.63;;;;;;;17.14;58.23;99318.44;4960244;28;20049;-93
2023/10/31 07:53:30;;;;;;;16.63;8.23;;;;;;;17.14;57.75;99296.66;4955219;28;20031;-95
2023/10/31 07:56:26;;;;;;;;;;;;;;;;;;;;;
2023/10/31 08:17:41;;;;;;;15.60;8.73;;;;;;;18.38;55.92;99278.25;4953795;28;20052;-93
2023/10/31 08:20:33;;;;;;;;;;;;;;;;;;;;;
2023/10/31 08:32:57;;;;;;;;;;;;;;;;;;;;;
2023/10/31 08:38:50;;;;;;;;;;;;;;;;;;;;;
2023/10/31 08:41:52;;;;;;;16.15;8.95;;;;;;;19.59;51.93;99234.50;4952173;28;20146;-95
2023/10/31 08:44:19;;;;;;;19.20;9.43;;;;;;;19.62;51.63;99216.63;4941415;28;20062;-93
2023/10/31 08:46:50;;;;;;;14.90;7.40;;;;;;;19.72;51.45;99208.06;4928767;29;20035;-92
2023/10/31 08:49:21;;;;;;;13.20;5.85;;;;;;;19.77;49.93;99192.25;4948321;29;20041;-93
2023/10/31 08:51:49;;;;;;;13.13;5.25;;;;;;;19.95;50.09;99187.44;4927074;28;20059;-94
2023/10/31 08:54:50;;;;;;;15.85;6.50;;;;;;;20.02;48.97;99175.16;4936667;28;20019;-93
2023/10/31 08:57:53;;;;;;;;;;;;;;;;;;;;;
2023/10/31 09:00:28;;;;;;;9.63;4.82;;;;;;;20.41;47.49;99168.34;4974005;28;20065;-96
2023/10/31 09:02:59;;;;;;;;;;;;;;;20.54;46.76;99169.97;4953176;28;20097;-94
2023/10/31 09:05:27;;;;;;;11.98;5.50;;;;;;;20.49;46.52;99142.81;4951702;28;19910;-94
2023/10/31 09:08:05;;;;;;;13.20;5.07;;;;;;;20.64;45.25;99129.63;4934640;28;20034;-95
2023/10/31 09:25:38;;;;;;;11.30;3.47;;;;;;;21.52;40.49;99080.66;5941338;22;20149;-95
2023/10/31 09:28:14;;;;;;;8.70;2.28;;;;;;;21.58;38.17;99062.84;4936212;29;20055;-95
2023/10/31 09:57:23;;;;;;;7.07;2.28;;;;;;;23.20;29.94;99042.84;4948255;28;20117;-96
2023/10/31 10:00:33;;;;;;;11.25;3.22;;;;;;;23.11;29.87;98999.13;4931853;29;20046;-96
2023/10/31 10:03:31;;;;;;;;;;;;;;;;;;;;;
2023/10/31 10:06:55;;;;;;;;;;;;;;;;;;;;;
2023/10/31 10:10:31;;;;;;;6.00;3.83;;;;;;;23.31;29.14;98993.63;4881157;29;20135;-94
2023/10/31 10:28:04;;;;;;;;;;;;;;;;;;;;;
2023/10/31 10:34:07;;;;;;;5.45;1.83;;;;;;;23.64;27.66;98968.31;4995721;28;20041;-93
2023/10/31 10:37:40;;;;;;;;;;;;;;;;;;;;;
2023/10/31 10:41:10;;;;;;;15.30;5.15;;;;;;;23.69;27.32;98946.00;4974621;28;20044;-96
2023/10/31 10:44:26;;;;;;;;;;;;;;;;;;;;;
2023/10/31 10:47:10;;;;;;;7.28;1.70;;;;;;;23.73;26.83;98944.13;4962998;28;20095;-95
2023/10/31 10:49:47;;;;;;;3.30;1.50;;;;;;;23.89;26.77;98962.50;4975510;28;20062;-93
2023/10/31 10:52:55;;;;;;;4.85;1.95;;;;;;;23.98;27.03;98963.03;4972548;28;20034;-94
2023/10/31 10:55:24;;;;;;;4.47;1.50;;;;;;;23.85;26.46;98926.69;5005536;28;20100;-93
2023/10/31 10:58:25;;;;;;;4.00;2.75;;;;;;;24.05;26.48;98951.31;4989472;28;20029;-94
2023/10/31 11:01:08;;;;;;;9.80;2.38;;;;;;;24.03;26.69;98948.97;5009515;28;20030;-94
2023/10/31 11:03:43;;;;;;;5.05;1.80;;;;;;;23.96;27.69;98927.63;4992656;28;20045;-96
2023/10/31 11:06:10;;;;;;;5.47;1.65;;;;;;;23.96;28.17;98924.88;5007449;28;20050;-96
2023/10/31 11:36:15;;;;;;;;;;;;;;;;;;;;;
2023/10/31 11:42:38;;;;;;;4.40;1.85;;;;;;;24.21;27.24;98875.72;4923201;29;20031;-91
2023/10/31 11:45:43;;;;;;;7.65;2.00;;;;;;;24.24;27.27;98870.66;4911836;29;20050;-93
2023/10/31 11:48:34;;;;;;;4.13;1.90;;;;;;;24.38;27.73;98888.16;4906433;29;20036;-94
2023/10/31 11:51:21;;;;;;;10.20;2.40;;;;;;;24.30;27.92;98864.47;4903392;29;20127;-92
2023/10/31 11:54:15;;;;;;;4.53;1.95;;;;;;;24.25;28.01;98851.03;4912756;29;20044;-96
2023/10/31 11:57:04;;;;;;;;;;;;;;;;;;;;;
2023/10/31 12:14:28;;;;;;;;;;;;;;;;;;;;;
2023/10/31 12:16:48;;;;;;;;;;;;;;;;;;;;;
2023/10/31 12:19:48;;;;;;;26.38;3.38;;;;;;;24.43;27.45;98854.00;4890165;29;20171;-94
2023/10/31 12:22:35;;;;;;;20.63;4.60;;;;;;;24.23;27.79;98836.06;4861203;29;20024;-94
2023/10/31 12:25:53;;;;;;;6.03;2.33;;;;;;;24.30;28.54;98831.44;4892243;29;20095;-95
2023/10/31 12:29:01;;;;;;;6.15;2.95;;;;;;;24.33;28.20;98860.16;4902511;29;20047;-95
2023/10/31 12:31:35;;;;;;;5.18;2.22;;;;;;;24.28;27.67;98853.03;4940023;29;20055;-93
2023/10/31 12:34:22;;;;;;;;;;;;;;;;;;;;;
2023/10/31 12:37:04;;;;;;;;;;;;;;;;;;;;;
2023/10/31 12:40:09;;;;;;;;;;;;;;;;;;;;;
2023/10/31 12:42:41;;;;;;;;;;;;;;;;;;;;;
2023/10/31 12:45:43;;;;;;;9.15;2.10;;;;;;;23.96;28.06;98812.13;4832613;29;20154;-94
2023/10/31 12:48:37;;;;;;;4.90;2.17;;;;;;;23.96;28.20;98823.13;4830699;29;20082;-95
2023/10/31 12:51:28;;;;;;;5.95;2.03;;;;;;;23.91;29.01;98823.47;4812278;29;20062;-95
2023/10/31 12:54:24;;;;;;;;;;;;;;;;;;;;;
2023/10/31 12:57:27;;;;;;;;;;;;;;;;;;;;;
2023/10/31 13:00:12;;;;;;;8.93;3.13;;;;;;;23.98;29.62;98834.53;4827290;29;20090;-94
2023/10/31 13:03:35;;;;;;;6.25;2.45;;;;;;;23.97;29.60;98830.22;4888532;29;20041;-93
2023/10/31 13:06:32;;;;;;;9.20;2.78;;;;;;;23.79;29.87;98818.19;4836994;29;20048;-94
2023/10/31 13:09:12;;;;;;;12.30;4.00;;;;;;;23.84;29.06;98828.84;4857515;29;20052;-96
2023/10/31 13:11:46;;;;;;;7.10;3.35;;;;;;;23.85;29.71;98816.69;4859087;29;20028;-94
2023/10/31 13:17:43;;;;;;;8.40;2.67;;;;;;;23.91;29.14;98812.47;4873612;29;20052;-94
2023/10/31 13:23:30;;;;;;;7.47;2.20;;;;;;;23.91;29.40;98808.94;4855044;29;20034;-94
2023/10/31 14:20:04;;;;;;;10.20;3.58;;;;;;;23.12;33.67;98807.69;685685;23;20353;-91
2023/10/31 14:22:48;;;;;;;;;;;;;;;;;;;;;
2023/10/31 14:25:30;;;;;;;10.90;2.85;;;;;;;22.84;34.04;98783.22;4984931;28;20110;-93
2023/10/31 14:28:14;;;;;;;;;;;;;;;;;;;;;
2023/10/31 14:34:37;;;;;;;;;;;;;;;;;;;;;
2023/10/31 14:38:04;;;;;;;8.80;2.95;;;;;;;22.47;35.20;98768.03;4902382;29;20569;-95
2023/10/31 14:40:30;;;;;;;8.43;2.88;;;;;;;22.43;35.14;98769.13;4937836;29;20063;-95
2023/10/31 14:43:01;;;;;;;7.93;3.00;;;;;;;22.39;35.18;98769.06;4893364;29;20079;-94
2023/10/31 14:49:15;;;;;;;7.63;2.80;;;;;;;22.20;35.23;98754.19;4891657;29;20052;-95
2023/10/31 14:52:42;;;;;;;;;;;;;;;;;;;;;
2023/10/31 14:55:09;;;;;;;9.73;2.38;;;;;;;22.06;35.57;98753.91;4944019;29;20130;-93
2023/10/31 14:58:36;;;;;;;7.82;2.90;;;;;;;21.87;35.90;98738.25;4915865;29;20043;-96
2023/10/31 15:04:43;;;;;;;14.45;6.18;;;;;;;21.75;36.17;98719.97;4904247;29;20065;-92
2023/10/31 15:21:48;;;;;;;12.25;3.45;;;;;;;21.37;37.00;98745.31;4901602;29;20079;-94
2023/10/31 15:24:30;;;;;;;;;;;;;;;;;;;;;
2023/10/31 15:27:31;;;;;;;7.15;3.17;;;;;;;21.27;37.44;98756.81;4812101;29;20101;-94
2023/10/31 15:30:09;;;;;;;;;;;;;;;;;;;;;
2023/10/31 15:32:56;;;;;;;9.57;3.28;;;;;;;21.22;37.65;98762.56;4800120;29;20125;-95
2023/10/31 15:35:51;;;;;;;14.98;3.95;;;;;;;21.30;37.71;98787.00;4830429;29;20038;-93
2023/10/31 15:38:22;;;;;;;8.50;2.88;;;;;;;21.12;38.10;98770.16;4831209;29;20042;-93
2023/10/31 15:40:56;;;;;;;8.93;2.70;;;;;;;21.04;37.94;98759.38;4849091;29;20034;-94
2023/10/31 15:43:25;;;;;;;8.27;3.10;;;;;;;21.10;37.89;98788.06;4897355;29;20040;-94
2023/10/31 15:46:04;;;;;;;;;;;;;;;;;;;;;
2023/10/31 15:48:45;;;;;;;;;;;;;;;;;;;;;
2023/10/31 15:51:33;;;;;;;4.73;2.90;;;;;;;21.06;38.89;98801.66;4914534;29;20130;-94
2023/10/31 15:54:01;;;;;;;15.23;3.20;;;;;;;20.97;38.32;98793.63;4910175;29;20027;-93
2023/10/31 15:56:30;;;;;;;7.82;3.00;;;;;;;20.88;37.91;98787.53;4911912;29;20035;-93
2023/10/31 15:59:26;;;;;;;;;;;;;;;;;;;;;
2023/10/31 16:05:44;;;;;;;7.97;3.28;;;;;;;20.73;38.86;98791.84;4991207;28;20077;-93
2023/10/31 16:08:47;;;;;;;7.78;3.95;;;;;;;20.63;38.36;98775.94;4954281;28;20026;-95
2023/10/31 16:24:55;;;;;;;6.75;4.03;;;;;;;20.19;40.40;98754.00;4832689;29;20046;-94
2023/10/31 16:27:59;;;;;;;;;;;;;;;;;;;;;
2023/10/31 16:30:30;;;;;;;8.63;3.13;;;;;;;20.08;41.09;98759.16;4926814;29;20601;-93
2023/10/31 16:33:00;;;;;;;10.38;2.88;;;;;;;20.08;41.29;98756.44;4923721;29;20126;-93
2023/10/31 16:35:28;;;;;;;9.60;3.08;;;;;;;20.03;41.73;98759.41;4936963;28;20038;-93
2023/10/31 16:40:46;;;;;;;6.82;3.28;;;;;;;19.99;43.38;98755.78;4964273;28;20045;-92
2023/10/31 16:43:12;;;;;;;9.55;4.03;;;;;;;20.18;43.46;98779.75;4947977;28;20413;-91
2023/10/31 16:45:48;;;;;;;;;;;;;;;;;;;;;
2023/10/31 16:48:31;;;;;;;11.38;4.32;;;;;;;20.07;44.16;98738.47;4967169;28;20102;-93
2023/10/31 16:50:56;;;;;;;11.70;5.50;;;;;;;20.03;44.65;98729.34;4950751;28;20022;-93
2023/10/31 16:53:34;;;;;;;6.57;3.72;;;;;;;20.20;44.96;98763.81;4965460;28;20034;-93
2023/10/31 16:56:04;;;;;;;7.07;4.28;;;;;;;20.11;45.08;98749.50;4952520;28;20038;-93
2023/10/31 16:58:46;;;;;;;;;;;;;;;;;;;;;
2023/10/31 17:01:21;;;;;;;8.30;3.95;;;;;;;20.27;44.52;98741.31;4968323;28;20561;-92
2023/10/31 17:03:51;;;;;;;9.70;4.40;;;;;;;20.29;44.91;98758.97;4950594;28;20041;-91
2023/10/31 17:06:40;;;;;;;13.20;4.30;;;;;;;20.28;44.79;98753.88;4949193;28;20038;-92
2023/10/31 17:09:07;;;;;;;12.38;3.92;;;;;;;20.29;44.79;98752.72;4965938;28;20034;-92
2023/10/31 17:11:32;;;;;;;14.95;9.95;;;;;;;20.33;45.16;98753.59;4948151;28;20086;-91
2023/10/31 17:14:26;;;;;;;8.93;4.95;;;;;;;20.34;45.08;98752.47;4946768;28;20481;-93
2023/10/31 17:17:07;;;;;;;;;;;;;;;;;;;;;
2023/10/31 17:19:48;;;;;;;;;;;;;;;;;;;;;
2023/10/31 17:22:16;;;;;;;11.73;4.13;;;;;;;20.41;45.47;98777.28;4979966;28;20282;-92
2023/10/31 17:24:44;;;;;;;8.77;4.00;;;;;;;20.49;45.69;98791.94;4963615;28;20030;-92
2023/10/31 17:27:20;;;;;;;;;;;;;;;;;;;;;
2023/10/31 17:30:13;;;;;;;12.43;4.28;;;;;;;20.37;46.21;98779.09;4969539;28;20082;-92
2023/10/31 17:32:48;;;;;;;8.60;3.95;;;;;;;20.30;46.21;98773.44;4964687;28;20026;-93
2023/10/31 17:35:28;;;;;;;6.82;3.83;;;;;;;20.34;46.01;98777.09;4965785;28;20026;-94
2023/10/31 17:38:23;;;;;;;;;;;;;;;;;;;;;
2023/10/31 17:40:59;;;;;;;;;;;;;;;;;;;;;
2023/10/31 17:43:26;;;;;;;13.43;5.18;;;;;;;20.29;46.75;98782.78;4967072;28;20473;-93
2023/10/31 17:46:01;;;;;;;;;;;;;;;;;;;;;
2023/10/31 17:48:35;;;;;;;14.27;5.10;;;;;;;20.21;46.83;98773.56;4967703;28;20113;-94
2023/10/31 17:51:04;;;;;;;13.23;5.15;;;;;;;20.23;46.89;98771.28;4950408;28;20030;-94
2023/10/31 17:53:38;;;;;;;15.18;5.10;;;;;;;20.17;47.11;98754.38;4968751;28;20037;-93
2023/10/31 17:56:06;;;;;;;10.30;4.80;;;;;;;20.30;46.89;98778.94;4946521;28;20404;-92
2023/10/31 17:58:35;;;;;;;11.77;5.80;;;;;;;20.06;47.08;98744.25;4962927;28;20038;-91
2023/10/31 18:01:06;;;;;;;17.25;6.10;;;;;;;20.15;47.21;98764.84;4962329;28;20393;-92
2023/10/31 18:03:32;;;;;;;16.65;5.72;;;;;;;20.16;47.50;98757.44;4962978;28;20029;-92
2023/10/31 18:05:58;;;;;;;10.98;5.13;;;;;;;20.12;47.40;98742.88;4947581;28;20041;-91
2023/10/31 18:08:28;;;;;;;11.27;4.90;;;;;;;20.13;47.02;98744.44;4963459;28;20432;-93
2023/10/31 18:11:01;;;;;;;8.27;4.68;;;;;;;20.17;47.17;98748.06;4964140;28;20026;-93
2023/10/31 18:13:27;;;;;;;14.77;5.15;;;;;;;20.04;47.10;98741.09;4964531;28;20023;-94
2023/10/31 18:15:55;;;;;;;12.68;4.57;;;;;;;20.18;47.25;98768.81;4948824;28;20365;-94
2023/10/31 18:18:26;;;;;;;9.23;5.00;;;;;;;20.20;47.53;98774.72;4947719;28;20022;-93
2023/10/31 18:20:54;;;;;;;9.25;4.68;;;;;;;20.22;47.15;98763.47;4962589;28;20046;-92
2023/10/31 18:23:25;;;;;;;7.25;4.40;;;;;;;20.14;47.36;98757.78;4947502;28;20026;-93
2023/10/31 18:26:06;;;;;;;10.27;4.78;;;;;;;20.12;47.39;98749.13;4965463;28;20483;-93
2023/10/31 18:28:52;;;;;;;;;;;;;;;;;;;;;
2023/10/31 18:31:32;;;;;;;;;;;;;;;;;;;;;
2023/10/31 18:34:08;;;;;;;;;;;;;;;;;;;;;
2023/10/31 18:36:38;;;;;;;13.77;4.78;;;;;;;20.08;47.47;98750.97;4968088;28;20105;-94
2023/10/31 18:39:06;;;;;;;9.30;4.72;;;;;;;20.08;47.49;98759.16;4965276;28;20061;-92
2023/10/31 18:41:47;;;;;;;12.95;4.80;;;;;;;20.15;47.18;98772.22;4966198;28;20030;-95
2023/10/31 18:44:38;;;;;;;10.60;4.95;;;;;;;20.25;47.38;98782.69;4950641;28;20022;-93
2023/10/31 18:47:24;;;;;;;;;;;;;;;;;;;;;
2023/10/31 18:50:15;;;;;;;13.75;5.28;;;;;;;20.17;47.22;98778.16;4965114;28;20728;-92
2023/10/31 18:52:43;;;;;;;10.05;4.82;;;;;;;20.17;47.72;98778.97;4979830;28;20026;-91
2023/10/31 18:55:18;;;;;;;11.32;4.65;;;;;;;20.05;47.43;98761.81;4947822;28;20011;-94
2023/10/31 18:57:44;;;;;;;14.00;4.70;;;;;;;20.06;47.36;98760.66;4947946;28;20091;-93
2023/10/31 19:00:10;;;;;;;11.38;5.05;;;;;;;20.12;47.51;98773.72;4948775;28;20124;-94
2023/10/31 19:09:25;;;;;;;12.30;6.65;;;;;;;20.08;47.98;98755.63;5001529;28;20029;-93
2023/10/31 19:11:51;;;;;;;8.27;5.10;;;;;;;20.09;47.75;98757.25;4950513;28;20061;-92
2023/10/31 19:14:22;;;;;;;11.32;5.10;;;;;;;20.01;47.77;98748.03;4949535;28;20026;-92
2023/10/31 19:17:13;;;;;;;10.88;5.63;;;;;;;20.01;47.61;98745.31;4969249;28;20100;-92
2023/10/31 19:20:13;;;;;;;;;;;;;;;;;;;;;
2023/10/31 19:22:48;;;;;;;10.52;4.70;;;;;;;20.08;47.98;98752.91;4979215;28;20094;-90
2023/10/31 19:25:26;;;;;;;;;;;;;;;;;;;;;
2023/10/31 19:28:01;;;;;;;15.52;5.25;;;;;;;20.04;48.03;98754.75;4983185;28;20048;-93
2023/10/31 19:30:27;;;;;;;9.90;4.80;;;;;;;19.99;48.05;98753.84;4968042;28;20034;-93
2023/10/31 19:32:53;;;;;;;7.78;4.20;;;;;;;20.02;47.70;98759.75;4966243;28;20105;-94
2023/10/31 19:35:28;;;;;;;;;;;;;;;;;;;;;
2023/10/31 19:38:04;;;;;;;;;;;;;;;;;;;;;
2023/10/31 19:40:39;;;;;;;10.45;4.90;;;;;;;20.08;47.99;98767.38;4961187;28;20038;-94
2023/10/31 19:43:07;;;;;;;17.33;5.30;;;;;;;20.01;47.88;98758.19;4966939;28;20476;-92
2023/10/31 19:45:40;;;;;;;8.65;4.57;;;;;;;19.95;47.69;98744.75;4965645;28;20038;-91
2023/10/31 19:48:08;;;;;;;10.43;5.00;;;;;;;20.05;47.73;98765.34;4952912;28;20056;-92
2023/10/31 19:50:34;;;;;;;10.68;4.93;;;;;;;20.02;48.01;98765.22;4966075;28;20053;-94
2023/10/31 19:53:00;;;;;;;11.65;4.88;;;;;;;19.95;48.02;98747.47;4965997;28;20036;-94
2023/10/31 19:55:25;;;;;;;8.80;5.65;;;;;;;19.84;48.20;98727.25;4983181;28;20028;-94
2023/10/31 19:57:53;;;;;;;8.48;4.72;;;;;;;19.94;48.14;98743.16;4967971;28;20050;-93
2023/10/31 20:00:51;;;;;;;;;;;;;;;;;;;;;
2023/10/31 20:03:18;;;;;;;11.77;5.65;;;;;;;19.93;47.60;98736.09;4972253;28;20022;-93
2023/10/31 20:05:47;;;;;;;13.88;5.70;;;;;;;20.01;48.15;98747.25;4967620;28;20022;-91
2023/10/31 20:08:15;;;;;;;9.30;5.55;;;;;;;19.93;48.08;98733.38;4950312;28;20042;-93
2023/10/31 20:10:51;;;;;;;;;;;;;;;;;;;;;
2023/10/31 20:13:32;;;;;;;9.55;5.45;;;;;;;19.83;48.25;98709.25;4969951;28;20129;-93
2023/10/31 20:16:07;;;;;;;10.65;6.93;;;;;;;19.81;48.31;98708.81;4954670;28;20128;-91
2023/10/31 20:18:57;;;;;;;15.52;5.88;;;;;;;19.82;48.09;98706.88;4949548;29;20040;-94
2023/10/31 20:21:31;;;;;;;10.15;5.03;;;;;;;19.76;48.23;98692.69;4916029;29;20057;-92
2023/10/31 20:24:05;;;;;;;9.95;5.03;;;;;;;19.76;48.13;98696.19;4910970;29;20071;-93
2023/10/31 20:26:31;;;;;;;14.50;5.00;;;;;;;19.76;48.14;98692.69;4922365;29;20512;-93
2023/10/31 20:28:57;;;;;;;10.25;5.10;;;;;;;19.76;48.11;98703.59;4923165;29;20035;-91
2023/10/31 20:31:30;;;;;;;8.82;4.72;;;;;;;19.79;48.22;98711.09;4906912;29;20024;-94
2023/10/31 20:33:58;;;;;;;13.63;5.50;;;;;;;19.74;48.45;98719.53;4908208;29;20046;-93